createdAt,value
2022-08-11T00:02:03.736Z,4.40
2022-08-11T00:07:06.945Z,4.40
2022-08-11T00:12:16.983Z,4.55
2022-08-11T00:17:19.104Z,4.35
2022-08-11T00:22:22.427Z,4.30
2022-08-11T00:27:35.855Z,3.95
2022-08-11T00:32:38.955Z,4.38
2022-08-11T00:37:48.462Z,4.07
2022-08-11T00:43:07.800Z,4.18
2022-08-11T00:48:24.360Z,9.30
2022-08-11T00:53:28.604Z,4.15
2022-08-11T00:59:13.254Z,4.45
2022-08-11T01:04:55.921Z,4.22
2022-08-11T01:10:11.600Z,3.85
2022-08-11T01:15:29.728Z,3.92
2022-08-11T01:21:05.422Z,3.83
2022-08-11T01:26:45.836Z,3.97
2022-08-11T01:32:11.571Z,4.70
2022-08-11T01:37:50.421Z,4.15
2022-08-11T01:43:50.971Z,4.50
2022-08-11T01:50:08.855Z,4.07
2022-08-11T01:55:14.472Z,5.10
2022-08-11T02:00:29.120Z,4.13
2022-08-11T02:05:49.063Z,4.60
2022-08-11T02:11:28.024Z,4.00
2022-08-11T02:16:57.721Z,4.47
2022-08-11T02:22:27.943Z,4.13
2022-08-11T02:28:05.959Z,4.43
2022-08-11T02:33:24.977Z,4.47
2022-08-11T02:38:31.017Z,4.53
2022-08-11T02:43:48.036Z,4.43
2022-08-11T02:49:23.837Z,4.82
2022-08-11T02:54:43.415Z,4.40
2022-08-11T03:00:00.536Z,5.15
2022-08-11T03:05:17.466Z,5.30
2022-08-11T03:10:34.004Z,5.00
2022-08-11T03:16:07.686Z,5.30
2022-08-11T03:22:01.117Z,5.10
2022-08-11T03:26:53.937Z,4.85
2022-08-11T03:32:06.193Z,5.43
2022-08-11T03:37:38.603Z,5.13
2022-08-11T03:42:50.487Z,5.25
2022-08-11T03:47:55.529Z,5.30
2022-08-11T03:53:16.443Z,5.75
2022-08-11T03:58:27.020Z,4.47
2022-08-11T04:03:47.484Z,5.68
2022-08-11T04:09:27.584Z,6.35
2022-08-11T04:15:09.569Z,5.72
2022-08-11T04:20:14.099Z,5.93
2022-08-11T04:25:58.086Z,5.90
2022-08-11T04:31:50.492Z,6.40
2022-08-11T04:37:34.677Z,6.68
2022-08-11T04:43:19.705Z,7.05
2022-08-11T04:49:04.971Z,5.22
2022-08-11T04:54:47.664Z,5.68
2022-08-11T05:00:31.981Z,5.40
2022-08-11T05:06:07.463Z,5.07
2022-08-11T05:11:22.197Z,5.78
2022-08-11T05:17:09.526Z,5.82
2022-08-11T05:22:31.750Z,6.25
2022-08-11T05:28:06.747Z,5.78
2022-08-11T05:33:31.354Z,6.22
2022-08-11T05:38:54.583Z,5.43
2022-08-11T05:44:22.466Z,5.82
2022-08-11T05:49:47.869Z,6.20
2022-08-11T05:55:10.192Z,5.13
2022-08-11T06:00:14.180Z,5.43
2022-08-11T06:05:16.803Z,5.22
2022-08-11T06:10:28.946Z,5.72
2022-08-11T06:20:46.555Z,4.72
2022-08-11T06:25:49.038Z,4.90
2022-08-11T06:30:50.998Z,4.53
2022-08-11T06:36:08.084Z,4.80
2022-08-11T06:41:38.439Z,5.72
2022-08-11T06:46:47.734Z,6.45
2022-08-11T06:57:29.903Z,5.60
2022-08-11T07:02:37.863Z,4.93
2022-08-11T07:08:46.265Z,4.93
2022-08-11T07:14:10.818Z,5.47
2022-08-11T07:19:36.267Z,4.78
2022-08-11T07:25:23.776Z,4.22
2022-08-11T07:30:26.365Z,4.40
2022-08-11T07:35:38.542Z,4.53
2022-08-11T07:40:42.718Z,4.15
2022-08-11T07:46:04.675Z,4.40
2022-08-11T07:51:25.453Z,3.40
2022-08-11T07:56:55.522Z,3.13
2022-08-11T08:02:09.337Z,2.80
2022-08-11T08:07:29.760Z,3.05
2022-08-11T08:12:51.055Z,3.47
2022-08-11T08:18:09.505Z,2.78
2022-08-11T08:23:33.859Z,4.47
2022-08-11T08:28:36.385Z,3.13
2022-08-11T08:33:42.224Z,2.83
2022-08-11T08:38:49.389Z,3.08
2022-08-11T08:43:55.848Z,4.70
2022-08-11T08:49:02.970Z,2.20
2022-08-11T08:54:37.149Z,2.28
2022-08-11T08:59:48.394Z,2.25
2022-08-11T09:04:51.716Z,2.35
2022-08-11T09:09:56.900Z,2.08
2022-08-11T09:15:03.676Z,2.00
2022-08-11T09:20:12.943Z,2.38
2022-08-11T09:30:36.623Z,2.03
2022-08-11T09:35:42.545Z,2.13
2022-08-11T09:40:52.756Z,2.45
2022-08-11T09:46:00.491Z,1.80
2022-08-11T09:51:03.381Z,2.25
2022-08-11T09:56:29.813Z,1.92
2022-08-11T10:01:40.629Z,1.90
2022-08-11T10:07:04.162Z,1.90
2022-08-11T10:12:14.526Z,2.30
2022-08-11T10:17:18.727Z,1.80
2022-08-11T10:22:39.323Z,2.30
2022-08-11T10:28:17.674Z,1.90
2022-08-11T10:33:36.855Z,2.00
2022-08-11T10:38:40.010Z,1.92
2022-08-11T10:44:01.799Z,2.05
2022-08-11T10:49:04.671Z,1.92
2022-08-11T10:54:24.983Z,2.13
2022-08-11T10:59:28.338Z,2.45
2022-08-11T11:04:42.177Z,2.22
2022-08-11T11:09:47.352Z,2.00
2022-08-11T11:15:17.520Z,2.30
2022-08-11T11:20:41.636Z,2.05
2022-08-11T11:26:07.039Z,2.40
2022-08-11T11:31:36.423Z,2.60
2022-08-11T11:36:58.219Z,2.15
2022-08-11T11:42:03.320Z,2.40
2022-08-11T11:47:06.559Z,2.67
2022-08-11T11:52:09.216Z,2.78
2022-08-11T11:57:33.057Z,2.10
2022-08-11T12:02:35.913Z,1.95
2022-08-11T12:08:12.871Z,2.15
2022-08-11T12:13:36.270Z,2.35
2022-08-11T12:18:39.849Z,2.20
2022-08-11T12:24:04.402Z,2.40
2022-08-11T12:29:09.692Z,2.17
2022-08-11T12:34:17.216Z,2.50
2022-08-11T12:40:10.791Z,2.45
2022-08-11T12:45:28.464Z,2.35
2022-08-11T12:50:49.485Z,2.65
2022-08-11T12:56:11.998Z,2.65
2022-08-11T13:01:32.468Z,2.53
2022-08-11T13:06:34.351Z,2.78
2022-08-11T13:11:57.625Z,2.92
2022-08-11T13:17:19.518Z,2.40
2022-08-11T13:22:24.355Z,2.70
2022-08-11T13:27:26.725Z,2.60
2022-08-11T13:32:29.112Z,2.70
2022-08-11T13:38:18.505Z,2.30
2022-08-11T13:42:53.427Z,2.90
2022-08-11T13:47:59.377Z,2.42
2022-08-11T13:53:01.198Z,2.50
2022-08-11T13:58:06.584Z,2.60
2022-08-11T14:03:25.935Z,2.63
2022-08-11T14:08:49.367Z,2.78
2022-08-11T14:13:53.146Z,2.83
2022-08-11T14:19:00.384Z,2.47
2022-08-11T14:24:04.630Z,2.17
2022-08-11T14:29:10.053Z,2.20
2022-08-11T14:34:14.524Z,2.55
2022-08-11T14:39:18.738Z,2.47
2022-08-11T14:44:39.844Z,2.65
2022-08-11T14:49:58.050Z,1.65
2022-08-11T14:55:25.082Z,2.40
2022-08-11T15:00:27.186Z,2.00
2022-08-11T15:05:29.267Z,2.00
2022-08-11T15:10:31.199Z,2.00
2022-08-11T15:15:53.296Z,1.77
2022-08-11T15:21:14.586Z,2.00
2022-08-11T15:26:45.163Z,1.70
2022-08-11T15:32:06.365Z,2.10
2022-08-11T15:37:27.693Z,1.83
2022-08-11T15:42:49.779Z,1.60
2022-08-11T15:48:05.335Z,2.20
2022-08-11T15:53:31.788Z,1.50
2022-08-11T15:59:41.217Z,1.75
2022-08-11T16:04:27.187Z,2.15
2022-08-11T16:09:37.610Z,1.73
2022-08-11T16:15:12.982Z,2.47
2022-08-11T16:20:17.399Z,2.75
2022-08-11T16:27:04.290Z,2.00
2022-08-11T16:30:46.650Z,1.90
2022-08-11T16:36:08.002Z,2.10
2022-08-11T16:41:37.107Z,2.13
2022-08-11T16:46:57.956Z,2.80
2022-08-11T16:52:10.919Z,1.98
2022-08-11T16:57:35.491Z,2.42
2022-08-11T17:03:01.125Z,2.13
2022-08-11T17:08:26.019Z,2.55
2022-08-11T17:13:36.861Z,2.25
2022-08-11T17:18:47.622Z,1.80
2022-08-11T17:23:55.053Z,2.40
2022-08-11T17:29:01.092Z,2.47
2022-08-11T17:34:21.938Z,2.85
2022-08-11T17:39:29.272Z,2.45
2022-08-11T17:44:51.874Z,2.30
2022-08-11T17:49:54.572Z,2.47
2022-08-11T17:55:15.936Z,2.90
2022-08-11T18:00:38.331Z,2.72
2022-08-11T18:05:44.526Z,2.65
2022-08-11T18:11:06.453Z,2.63
2022-08-11T18:16:28.347Z,2.30
2022-08-11T18:22:13.051Z,3.08
2022-08-11T18:27:35.397Z,2.30
2022-08-11T18:33:22.604Z,2.40
2022-08-11T18:38:41.497Z,2.30
2022-08-11T18:44:06.846Z,2.67
2022-08-11T18:50:02.018Z,2.45
2022-08-11T18:55:18.045Z,2.45
2022-08-11T19:00:38.493Z,2.15
2022-08-11T19:06:31.800Z,2.25
2022-08-11T19:11:42.707Z,2.55
2022-08-11T19:17:05.310Z,2.20
2022-08-11T19:22:27.200Z,2.60
2022-08-11T19:27:48.528Z,2.55
2022-08-11T19:33:10.139Z,2.90
2022-08-11T19:38:31.501Z,2.53
2022-08-11T19:43:53.231Z,1.88
2022-08-11T19:49:15.693Z,2.47
2022-08-11T19:54:36.793Z,2.67
2022-08-11T19:59:57.511Z,2.90
2022-08-11T20:05:17.847Z,2.20
2022-08-11T20:10:40.782Z,3.15
2022-08-11T20:16:02.064Z,2.63
2022-08-11T20:21:29.824Z,3.10
2022-08-11T20:26:54.153Z,2.42
2022-08-11T20:32:14.892Z,3.00
2022-08-11T20:37:36.683Z,2.22
2022-08-11T20:42:58.566Z,3.58
2022-08-11T20:48:23.462Z,2.38
2022-08-11T20:53:45.304Z,2.17
2022-08-11T20:59:18.552Z,2.65
2022-08-11T21:04:53.916Z,2.30
2022-08-11T21:10:23.319Z,2.60
2022-08-11T21:16:03.203Z,2.57
2022-08-11T21:21:26.393Z,2.43
2022-08-11T21:26:50.585Z,2.60
2022-08-11T21:32:13.210Z,2.20
2022-08-11T21:37:35.056Z,2.35
2022-08-11T21:43:00.703Z,5.03
2022-08-11T21:48:23.142Z,2.75
2022-08-11T21:53:45.510Z,2.60
2022-08-11T21:59:08.767Z,2.50
2022-08-11T22:04:30.086Z,3.38
2022-08-11T22:09:50.789Z,3.00
2022-08-11T22:15:11.081Z,3.03
2022-08-11T22:20:31.829Z,3.60
2022-08-11T22:25:57.784Z,3.35
2022-08-11T22:31:21.008Z,2.70
2022-08-11T22:36:41.691Z,2.50
2022-08-11T22:42:01.913Z,2.70
2022-08-11T22:47:23.555Z,3.22
2022-08-11T22:52:49.533Z,2.72
2022-08-11T22:58:12.271Z,2.97
2022-08-11T23:03:37.161Z,2.92
2022-08-11T23:08:59.524Z,3.47
2022-08-11T23:14:21.865Z,2.85
2022-08-11T23:20:06.728Z,3.47
2022-08-11T23:25:23.012Z,3.63
2022-08-11T23:30:43.281Z,3.42
2022-08-11T23:36:08.790Z,2.67
2022-08-11T23:41:31.980Z,3.30
2022-08-11T23:46:52.607Z,3.00
2022-08-11T23:52:13.720Z,3.33
2022-08-11T23:57:33.967Z,3.15
